aviador You're here:

K1P1 Decoded Metar

PLYMOUTH in NH, USA
Report Time2018-06-22 01:15:00
UTC Time2018-06-22 01:26:05
Flight Rules unknown UNKNOWN
Wind290° at 04 kt
W.Rank290° ranks 2
Current wind is below 290° avg. (7.0)
VisibilityN/A
Phenomena:N/A
Clouds:N/A
Expected CloudBase > 2,400 ft AGL from Temp-Dew spread
CeilingNone
Temp14°C (ISA -0)
Dew Point08°C (67% RH)
AAT12.1°C
QNH1013 hPa
Density Alt653 ft
Elevation505 ft
Report Wrong Elevation
Raw Report
K1P1 220115Z AUTO 29004KT CLR 14/08 A2990 RMK AO2 T01350079
PWINO=

Extra information for K1P1:More info

Metar Taf Metar & Taf Last 4 Metars F.Rules Stats Wind Profile Meteogram Temp Stats Airport Information Weather charts Add Link Nearby VenuesMetar ALERT Operation Metar Decoded Social comments

AIRNAV info for K1P1